Airport ID:KJTC
Update Time (UTC):23/11/2019 01:54
Wind Speed (Knots):5
Wind Direction (Magnetic):220
Temperature (°C):0
Dew Point (°C):-3
Humidity (%):86
Altimeter (inHg):30.21
Density Altitude (Feet):
Visibility (Miles):10+
Clouds (Hundreds of feet):CLR
Present Weather:
METAR:METAR KJTC 230150Z AUTO 24005KT 10SM CLR M00/M03 A3021 RMK AO2

The data displayed is for advisory purposes only and is not to be used for flight planning or operations.

This page is not automatically refreshed. Reload the page to see current data.